Aérodrome :
LOGIN :

S'inscrire | Disclaimer

   EN    FR    IT 

 










Légende :    VFR   VFR Marginal   IFR   IFR Intensif   IFR Très Intensif
Visi : 
Plafond : 
>= 8 km
>= 3000ft
5 à 8 km
1000 à 3000 ft
1500m à 5 km
500 à 1000 ft
800 à 1500m
200 à 500 ft
< 800m
< 200 ft
Symboles :   Orages  Brouillard  Fortes neiges  Fortes précipitations  Vent > 20 kt
SIGMETs :   Divers  Orages  Givrage  Turbulence  Onde Orograph.  Cendres Volcan.






- Altitude de l'aérodrome : 502 ft
- Code IATA : ORK


EICK - Cork

DERNIER METAR :
  • 250730Z 32008KT 9999 BKN005 16/14 Q1018 BECMG BKN015

METARs EXPIRÉS :
  • 250700Z 34009KT 9999 BKN006 16/14 Q1018 BECMG BKN015
  • 250630Z 34009KT 9999 SCT005 BKN050 15/14 Q1017 NOSIG
  • 250600Z 33009KT 9999 FEW004 BKN050 15/15 Q1017 NOSIG
  • 250530Z 32005KT 8000 FEW003 SCT020 BKN050 15/15 Q1017 BECMG 9999
  • 250500Z 32004KT 6000 FEW002 SCT010 BKN020 15/15 Q1017 BECMG 9999
  • 250430Z 32003KT 3000 BR BKN002 BKN010 15/15 Q1017 BECMG 9999 BKN010
  • 250400Z 32004KT 0600 R16/P2000 R34/P2000 FG BKN001 OVC002 15/15 Q1017 NOSIG
  • 250330Z 30005KT 0900 R16/P2000 R34/P2000 FG BKN001 OVC002 15/15 Q1017 NOSIG
  • 250300Z 30007KT 0700 R16/P2000 R34/P2000 FG OVC001 15/15 Q1017 NOSIG

TAF AMD TAF EICK
Valide du 25 à 07h jusqu'au 26 à 06h UTC


250705Z 2507/2606 34009KT 9999 SCT007 BKN020
PROB40
TEMPO 2507/2512 BKN007



MET'MAP, la Météo Aéronautique d'un coup d'oeil ! - Copyright ORBIFLY Décembre 2007 - Disclaimer

ORBIFLY MET'MAP TEAM :

Programmation & Développement : Alexandra Zaïnal
Sur une idée originale de : Baudouin d'Aumeries
Soutien technique & logistique : Manuel Goepfert
Assistance : Marc-Olivier Méhu




SOURCES & CREDITS :

   NOAA